Terminal Aerodrome Forecast
Issued by NWS

Home | Current Version | Previous Version | Text Only | Print | Product List | Glossary On
Versions: 1 2 3 4 5 6 7 8 9 10 11 12 13 14
175
FTUS43 KAPX 270520
TAFMBL
TAF
KMBL 270520Z 2706/2806 27016G26KT P6SM VCSH OVC050
     FM271500 27015G25KT P6SM VCSH SCT025 OVC040
     FM272100 25013G23KT P6SM -SHRA SCT025 OVC030
     FM272300 28010G19KT P6SM -SHRA SCT020 OVC030
     FM280100 28007KT P6SM -SHRA OVC028=

USA.gov is the U.S. government's official web portal to all federal, state and local government web resources and services.